WetterOnline ( https://www.wetteronline.de )

Wetter aktuell Kappeln

Aktuelles Wetter: Schönhagen (Ostseebad) (2m)

6-stündlich | Neueste Meldungen
Ortszeit Temperatur Wetter
Fr, 30.07. 20:00 19.4° C bedeckt
Fr, 30.07. 14:00 20.4° C leicht bewölkt
Fr, 30.07. 8:00 17.1° C leicht bewölkt
Fr, 30.07. 2:00 15.7° C bewölkt
Do, 29.07. 20:00 17.5° C bewölkt
Do, 29.07. 14:00 13.7° C leichter Regen
Do, 29.07. 8:00 15.6° C bewölkt
Mi, 28.07. 20:00 18.7° C bedeckt
Ortszeit Temperatur Wetter
Fr, 30.07. 20:00 19.4° C bedeckt
Fr, 30.07. 19:50 19.4° C bedeckt
Fr, 30.07. 19:40 19.6° C bedeckt
Fr, 30.07. 19:30 19.6° C wolkig
Fr, 30.07. 19:20 19.6° C wolkig
Fr, 30.07. 19:10 19.6° C leicht bewölkt
Fr, 30.07. 19:00 20.1° C leicht bewölkt
Fr, 30.07. 18:30 21.4° C bewölkt
Fr, 30.07. 18:00 20.6° C leicht bewölkt
Fr, 30.07. 17:30 21.3° C wolkenlos
Fr, 30.07. 17:00 22.0° C fast wolkenlos
Ortszeit Relative Feuchte Sichtweite
Fr, 30.07. 20:00 63% 50 km
Fr, 30.07. 14:00 60% 40 km
Fr, 30.07. 8:00 87% 22 km
Fr, 30.07. 2:00 85% 35 km
Do, 29.07. 20:00 67% 50 km
Do, 29.07. 14:00 91% 18 km
Do, 29.07. 8:00 83% 45 km
Mi, 28.07. 20:00 76% 65 km
Ortszeit Relative Feuchte Sichtweite
Fr, 30.07. 20:00 63% 50 km
Fr, 30.07. 19:50 63% -
Fr, 30.07. 19:40 62% -
Fr, 30.07. 19:30 62% 50 km
Fr, 30.07. 19:20 62% -
Fr, 30.07. 19:10 61% -
Fr, 30.07. 19:00 55% 45 km
Fr, 30.07. 18:30 51% 50 km
Fr, 30.07. 18:00 50% 55 km
Fr, 30.07. 17:30 49% >70 km
Fr, 30.07. 17:00 51% 55 km
Ortszeit Niederschlagsmenge Niederschlagsart
Fr, 30.07. 20:00 0.1 l/m2 in 12 Std. -
Fr, 30.07. 14:00 0.1 l/m2 in 6 Std. Regen
Fr, 30.07. 8:00 2 l/m2 in 12 Std. Regen
Fr, 30.07. 2:00 2 l/m2 in 6 Std. Regen
Do, 29.07. 20:00 6 l/m2 in 12 Std. Regen
Do, 29.07. 14:00 6 l/m2 in 6 Std. Regen
Do, 29.07. 8:00 0.0 l/m2 in 12 Std. -
Mi, 28.07. 20:00 0.1 l/m2 in 12 Std. Regen
Ortszeit Niederschlagsmenge Niederschlagsart
Fr, 30.07. 20:00 0.0 l/m2 in 1 Std. -
Fr, 30.07. 19:50 keine Meldung -
Fr, 30.07. 19:40 keine Meldung -
Fr, 30.07. 19:30 0.0 l/m2 in 1 Std. -
Fr, 30.07. 19:20 keine Meldung -
Fr, 30.07. 19:10 keine Meldung -
Fr, 30.07. 19:00 0.0 l/m2 in 1 Std. -
Fr, 30.07. 18:30 0.0 l/m2 in 1 Std. -
Fr, 30.07. 18:00 0.0 l/m2 in 1 Std. -
Fr, 30.07. 17:30 0.0 l/m2 in 1 Std. -
Fr, 30.07. 17:00 0.0 l/m2 in 1 Std. -
Ortszeit Stärke Spitze Richtung
km/h Bft. km/h Grad Sektor
Fr, 30.07. 20:00 11 2 54 260° W
Fr, 30.07. 14:00 35 5 57 250° W
Fr, 30.07. 8:00 22 4 39 230° SW
Fr, 30.07. 2:00 30 5 57 230° SW
Do, 29.07. 20:00 29 5 76 250° W
Do, 29.07. 14:00 31 5 67 230° SW
Do, 29.07. 8:00 31 5 - 220° SW
Mi, 28.07. 20:00 14 3 43 240° SW
Ortszeit Stärke Spitze Richtung
km/h Bft. km/h Grad Sektor
Fr, 30.07. 20:00 11 2 32 260° W
Fr, 30.07. 19:50 11 2 - 260° W
Fr, 30.07. 19:40 11 2 - 260° W
Fr, 30.07. 19:30 13 3 31 260° W
Fr, 30.07. 19:20 13 3 - 260° W
Fr, 30.07. 19:10 14 3 - 250° W
Fr, 30.07. 19:00 17 3 41 260° W
Fr, 30.07. 18:30 22 4 43 250° W
Fr, 30.07. 18:00 28 4 46 250° W
Fr, 30.07. 17:30 25 4 47 260° W
Fr, 30.07. 17:00 26 4 44 260° W
Ortszeit Untergrenze Bedeckung Gattung
total tief tief mittel hoch
Fr, 30.07. 20:00 3300 m 8/8 8/8 - - -
Fr, 30.07. 14:00 1170 m 5/8 1/8 - - -
Fr, 30.07. 8:00 840 m 3/8 3/8 - - -
Fr, 30.07. 2:00 840 m 8/8 7/8 - - -
Do, 29.07. 20:00 1080 m 7/8 7/8 - - -
Do, 29.07. 14:00 30 m 7/8 7/8 - - -
Do, 29.07. 8:00 1380 m 7/8 7/8 - - -
Mi, 28.07. 20:00 1800 m 8/8 8/8 - - -
Ortszeit Bedeckungsgrad in Achtel und Wolkenuntergrenze
Fr, 30.07. 20:00 1(3300m) 7(5100m) 8(5700m)
Fr, 30.07. 19:50 1(3300m) 7(5100m) 8(5700m)
Fr, 30.07. 19:40 5(5100m) 8(6000m)
Fr, 30.07. 19:30 6(6300m) 7(6300m)
Fr, 30.07. 19:20 6(6300m)
Fr, 30.07. 19:10 1(2100m) 5(6300m)
Fr, 30.07. 19:00 2(2100m) 4(6300m)
Fr, 30.07. 18:30 7(6300m)
Fr, 30.07. 18:00 1(1500m) 3(6600m)
Fr, 30.07. 17:30 1(1500m)
Fr, 30.07. 17:00 1(1440m)
Ortszeit Luftdruck NN (hPa) Tendenz (hPa in 3 Std.)
Fr, 30.07. 20:00 1005 - 0,3
Fr, 30.07. 14:00 1005 + 0,2
Fr, 30.07. 8:00 1005 - 0,1
Fr, 30.07. 2:00 1005 - 1,0
Do, 29.07. 20:00 1006 + 0,8
Do, 29.07. 14:00 1006 + 1,2
Do, 29.07. 8:00 1004 keine Meldung
Mi, 28.07. 20:00 1007 + 0,1
Ortszeit Luftdruck NN (hPa) Tendenz (hPa in 3 Std.)
Fr, 30.07. 20:00 1005 - 0,3
Fr, 30.07. 19:50 1005 keine Meldung
Fr, 30.07. 19:40 1005 keine Meldung
Fr, 30.07. 19:30 1005 - 0,3
Fr, 30.07. 19:20 1005 keine Meldung
Fr, 30.07. 19:10 1005 keine Meldung
Fr, 30.07. 19:00 1005 - 0,1
Fr, 30.07. 18:30 1005 0,0
Fr, 30.07. 18:00 1005 + 0,1
Fr, 30.07. 17:30 1005 0,0
Fr, 30.07. 17:00 1005 - 0,3
Ortszeit Schneehöhe (cm)
Fr, 30.07. 20:00 -
Fr, 30.07. 14:00 -
Fr, 30.07. 8:00 -
Fr, 30.07. 2:00 -
Do, 29.07. 20:00 -
Do, 29.07. 14:00 -
Do, 29.07. 8:00 -
Mi, 28.07. 20:00 -
Ortszeit Schneehöhe (cm)
Fr, 30.07. 20:00 -
Fr, 30.07. 19:50 -
Fr, 30.07. 19:40 -
Fr, 30.07. 19:30 -
Fr, 30.07. 19:20 -
Fr, 30.07. 19:10 -
Fr, 30.07. 19:00 -
Fr, 30.07. 18:30 -
Fr, 30.07. 18:00 -
Fr, 30.07. 17:30 -
Fr, 30.07. 17:00 -
Link zu dieser Seite / Seite empfehlen

Das Wetter in ...